sensor_id;sensor_type;location;lat;lon;timestamp;temperature;humidity
20712;DHT22;10517;50.742;4.224;2023-07-16T00:00:58;16.70;99.90
20712;DHT22;10517;50.742;4.224;2023-07-16T00:03:23;16.60;99.90
20712;DHT22;10517;50.742;4.224;2023-07-16T00:05:50;16.50;99.90
20712;DHT22;10517;50.742;4.224;2023-07-16T00:08:16;16.40;99.90
20712;DHT22;10517;50.742;4.224;2023-07-16T00:10:42;16.40;99.90
20712;DHT22;10517;50.742;4.224;2023-07-16T00:13:07;16.40;99.90
20712;DHT22;10517;50.742;4.224;2023-07-16T00:15:33;16.40;99.90
20712;DHT22;10517;50.742;4.224;2023-07-16T00:17:59;16.30;99.90
20712;DHT22;10517;50.742;4.224;2023-07-16T00:20:24;16.30;99.90
20712;DHT22;10517;50.742;4.224;2023-07-16T00:22:50;16.30;99.90
20712;DHT22;10517;50.742;4.224;2023-07-16T00:25:16;16.30;99.90
20712;DHT22;10517;50.742;4.224;2023-07-16T00:27:42;16.30;99.90
20712;DHT22;10517;50.742;4.224;2023-07-16T00:30:08;16.40;99.90
20712;DHT22;10517;50.742;4.224;2023-07-16T00:32:34;16.40;99.90
20712;DHT22;10517;50.742;4.224;2023-07-16T00:35:00;16.40;99.90
20712;DHT22;10517;50.742;4.224;2023-07-16T00:37:26;16.30;99.90
20712;DHT22;10517;50.742;4.224;2023-07-16T00:39:52;16.30;99.90
20712;DHT22;10517;50.742;4.224;2023-07-16T00:42:18;16.30;99.90
20712;DHT22;10517;50.742;4.224;2023-07-16T00:44:43;16.20;99.90
20712;DHT22;10517;50.742;4.224;2023-07-16T00:47:09;16.20;99.90
20712;DHT22;10517;50.742;4.224;2023-07-16T00:49:35;16.20;99.90
20712;DHT22;10517;50.742;4.224;2023-07-16T00:52:02;16.30;99.90
20712;DHT22;10517;50.742;4.224;2023-07-16T00:54:29;16.20;99.90
20712;DHT22;10517;50.742;4.224;2023-07-16T00:56:55;16.20;99.90
20712;DHT22;10517;50.742;4.224;2023-07-16T00:59:21;16.10;99.90
20712;DHT22;10517;50.742;4.224;2023-07-16T01:01:46;16.10;99.90
20712;DHT22;10517;50.742;4.224;2023-07-16T01:04:12;16.00;99.90
20712;DHT22;10517;50.742;4.224;2023-07-16T01:06:40;16.10;99.90
20712;DHT22;10517;50.742;4.224;2023-07-16T01:11:39;15.90;99.90
20712;DHT22;10517;50.742;4.224;2023-07-16T01:14:05;15.80;99.90
20712;DHT22;10517;50.742;4.224;2023-07-16T01:16:32;15.70;99.90
20712;DHT22;10517;50.742;4.224;2023-07-16T01:18:57;15.60;99.90
20712;DHT22;10517;50.742;4.224;2023-07-16T01:21:24;15.60;99.90
20712;DHT22;10517;50.742;4.224;2023-07-16T01:31:49;15.40;99.90
20712;DHT22;10517;50.742;4.224;2023-07-16T01:34:17;15.40;99.90
20712;DHT22;10517;50.742;4.224;2023-07-16T01:36:44;15.20;99.90
20712;DHT22;10517;50.742;4.224;2023-07-16T01:39:10;15.20;99.90
20712;DHT22;10517;50.742;4.224;2023-07-16T01:41:35;15.20;99.90
20712;DHT22;10517;50.742;4.224;2023-07-16T01:44:01;15.20;99.90
20712;DHT22;10517;50.742;4.224;2023-07-16T01:46:26;15.20;99.90
20712;DHT22;10517;50.742;4.224;2023-07-16T01:48:52;15.20;99.90
20712;DHT22;10517;50.742;4.224;2023-07-16T01:51:18;15.20;99.90
20712;DHT22;10517;50.742;4.224;2023-07-16T01:53:45;15.20;99.90
20712;DHT22;10517;50.742;4.224;2023-07-16T01:56:12;15.30;99.90
20712;DHT22;10517;50.742;4.224;2023-07-16T01:58:38;15.20;99.90
20712;DHT22;10517;50.742;4.224;2023-07-16T02:01:03;15.20;99.90
20712;DHT22;10517;50.742;4.224;2023-07-16T02:03:29;15.20;99.90
20712;DHT22;10517;50.742;4.224;2023-07-16T02:05:54;15.30;99.90
20712;DHT22;10517;50.742;4.224;2023-07-16T02:08:20;15.20;99.90
20712;DHT22;10517;50.742;4.224;2023-07-16T02:10:49;15.20;99.90
20712;DHT22;10517;50.742;4.224;2023-07-16T02:13:15;15.20;99.90
20712;DHT22;10517;50.742;4.224;2023-07-16T02:15:42;15.20;99.90
20712;DHT22;10517;50.742;4.224;2023-07-16T02:18:08;15.10;99.90
20712;DHT22;10517;50.742;4.224;2023-07-16T02:20:33;15.10;99.90
20712;DHT22;10517;50.742;4.224;2023-07-16T02:22:59;15.20;99.90
20712;DHT22;10517;50.742;4.224;2023-07-16T02:25:24;15.20;99.90
20712;DHT22;10517;50.742;4.224;2023-07-16T02:27:51;15.20;99.90
20712;DHT22;10517;50.742;4.224;2023-07-16T02:30:16;15.10;99.90
20712;DHT22;10517;50.742;4.224;2023-07-16T02:32:42;15.10;99.90
20712;DHT22;10517;50.742;4.224;2023-07-16T02:35:08;15.10;99.90
20712;DHT22;10517;50.742;4.224;2023-07-16T02:37:34;15.10;99.90
20712;DHT22;10517;50.742;4.224;2023-07-16T02:39:59;15.10;99.90
20712;DHT22;10517;50.742;4.224;2023-07-16T02:42:25;15.00;99.90
20712;DHT22;10517;50.742;4.224;2023-07-16T02:44:51;15.00;99.90
20712;DHT22;10517;50.742;4.224;2023-07-16T02:47:18;14.80;99.90
20712;DHT22;10517;50.742;4.224;2023-07-16T02:49:43;14.90;99.90
20712;DHT22;10517;50.742;4.224;2023-07-16T02:52:09;14.80;99.90
20712;DHT22;10517;50.742;4.224;2023-07-16T02:54:37;14.90;99.90
20712;DHT22;10517;50.742;4.224;2023-07-16T02:57:05;14.90;99.90
20712;DHT22;10517;50.742;4.224;2023-07-16T02:59:30;14.90;99.90
20712;DHT22;10517;50.742;4.224;2023-07-16T03:01:56;14.90;99.90
20712;DHT22;10517;50.742;4.224;2023-07-16T03:04:21;14.80;99.90
20712;DHT22;10517;50.742;4.224;2023-07-16T03:06:47;14.80;99.90
20712;DHT22;10517;50.742;4.224;2023-07-16T03:09:13;14.80;99.90
20712;DHT22;10517;50.742;4.224;2023-07-16T03:11:38;14.80;99.90
20712;DHT22;10517;50.742;4.224;2023-07-16T03:14:04;14.80;99.90
20712;DHT22;10517;50.742;4.224;2023-07-16T03:16:29;14.80;99.90
20712;DHT22;10517;50.742;4.224;2023-07-16T03:18:55;14.80;99.90
20712;DHT22;10517;50.742;4.224;2023-07-16T03:21:20;14.70;99.90
20712;DHT22;10517;50.742;4.224;2023-07-16T03:23:46;14.80;99.90
20712;DHT22;10517;50.742;4.224;2023-07-16T03:26:12;14.70;99.90
20712;DHT22;10517;50.742;4.224;2023-07-16T03:28:37;14.70;99.90
20712;DHT22;10517;50.742;4.224;2023-07-16T03:31:03;14.70;99.90
20712;DHT22;10517;50.742;4.224;2023-07-16T03:33:28;14.70;99.90
20712;DHT22;10517;50.742;4.224;2023-07-16T03:35:54;14.70;99.90
20712;DHT22;10517;50.742;4.224;2023-07-16T03:38:19;14.70;99.90
20712;DHT22;10517;50.742;4.224;2023-07-16T03:40:49;14.60;99.90
20712;DHT22;10517;50.742;4.224;2023-07-16T03:43:16;14.70;99.90
20712;DHT22;10517;50.742;4.224;2023-07-16T03:45:42;14.70;99.90
20712;DHT22;10517;50.742;4.224;2023-07-16T03:48:07;14.70;99.90
20712;DHT22;10517;50.742;4.224;2023-07-16T03:50:34;14.70;99.90
20712;DHT22;10517;50.742;4.224;2023-07-16T03:52:59;14.70;99.90
20712;DHT22;10517;50.742;4.224;2023-07-16T03:55:25;14.70;99.90
20712;DHT22;10517;50.742;4.224;2023-07-16T03:57:51;14.60;99.90
20712;DHT22;10517;50.742;4.224;2023-07-16T04:00:17;14.60;99.90
20712;DHT22;10517;50.742;4.224;2023-07-16T04:02:42;14.60;99.90
20712;DHT22;10517;50.742;4.224;2023-07-16T04:05:08;14.60;99.90
20712;DHT22;10517;50.742;4.224;2023-07-16T04:07:34;14.70;99.90
20712;DHT22;10517;50.742;4.224;2023-07-16T04:10:00;14.70;99.90
20712;DHT22;10517;50.742;4.224;2023-07-16T04:12:26;14.60;99.90
20712;DHT22;10517;50.742;4.224;2023-07-16T04:14:57;14.50;99.90
20712;DHT22;10517;50.742;4.224;2023-07-16T04:17:23;14.60;99.90
20712;DHT22;10517;50.742;4.224;2023-07-16T04:19:49;14.60;99.90
20712;DHT22;10517;50.742;4.224;2023-07-16T04:22:15;14.70;99.90
20712;DHT22;10517;50.742;4.224;2023-07-16T04:24:40;14.70;99.90
20712;DHT22;10517;50.742;4.224;2023-07-16T04:27:06;14.70;99.90
20712;DHT22;10517;50.742;4.224;2023-07-16T04:29:31;14.80;99.90
20712;DHT22;10517;50.742;4.224;2023-07-16T04:31:57;14.80;99.90
20712;DHT22;10517;50.742;4.224;2023-07-16T04:34:22;14.90;99.90
20712;DHT22;10517;50.742;4.224;2023-07-16T04:36:48;14.80;99.90
20712;DHT22;10517;50.742;4.224;2023-07-16T04:39:14;14.90;99.90
20712;DHT22;10517;50.742;4.224;2023-07-16T04:41:39;14.90;99.90
20712;DHT22;10517;50.742;4.224;2023-07-16T04:44:05;14.90;99.90
20712;DHT22;10517;50.742;4.224;2023-07-16T04:46:31;14.90;99.90
20712;DHT22;10517;50.742;4.224;2023-07-16T04:48:56;15.00;99.90
20712;DHT22;10517;50.742;4.224;2023-07-16T04:51:22;15.10;99.90
20712;DHT22;10517;50.742;4.224;2023-07-16T04:53:48;15.20;99.90
20712;DHT22;10517;50.742;4.224;2023-07-16T04:56:15;15.20;99.90
20712;DHT22;10517;50.742;4.224;2023-07-16T04:58:41;15.30;99.90
20712;DHT22;10517;50.742;4.224;2023-07-16T05:01:07;15.30;99.90
20712;DHT22;10517;50.742;4.224;2023-07-16T05:03:33;15.30;99.90
20712;DHT22;10517;50.742;4.224;2023-07-16T05:05:59;15.30;99.90
20712;DHT22;10517;50.742;4.224;2023-07-16T05:08:24;15.40;99.90
20712;DHT22;10517;50.742;4.224;2023-07-16T05:10:50;15.50;99.90
20712;DHT22;10517;50.742;4.224;2023-07-16T05:13:15;15.60;99.90
20712;DHT22;10517;50.742;4.224;2023-07-16T05:15:43;15.70;99.90
20712;DHT22;10517;50.742;4.224;2023-07-16T05:18:09;15.70;99.90
20712;DHT22;10517;50.742;4.224;2023-07-16T05:20:35;15.70;99.90
20712;DHT22;10517;50.742;4.224;2023-07-16T05:23:01;15.80;99.90
20712;DHT22;10517;50.742;4.224;2023-07-16T05:25:26;15.80;99.90
20712;DHT22;10517;50.742;4.224;2023-07-16T05:27:52;15.80;99.90
20712;DHT22;10517;50.742;4.224;2023-07-16T05:30:18;15.90;99.90
20712;DHT22;10517;50.742;4.224;2023-07-16T05:32:43;15.90;99.90
20712;DHT22;10517;50.742;4.224;2023-07-16T05:35:09;16.00;99.90
20712;DHT22;10517;50.742;4.224;2023-07-16T05:37:35;16.10;99.90
20712;DHT22;10517;50.742;4.224;2023-07-16T05:40:00;16.20;99.90
20712;DHT22;10517;50.742;4.224;2023-07-16T05:42:26;16.20;99.90
20712;DHT22;10517;50.742;4.224;2023-07-16T05:44:52;16.20;99.90
20712;DHT22;10517;50.742;4.224;2023-07-16T05:47:17;16.30;99.90
20712;DHT22;10517;50.742;4.224;2023-07-16T05:49:43;16.40;99.90
20712;DHT22;10517;50.742;4.224;2023-07-16T05:52:08;16.50;99.90
20712;DHT22;10517;50.742;4.224;2023-07-16T05:54:34;16.50;99.90
20712;DHT22;10517;50.742;4.224;2023-07-16T05:57:00;16.60;99.90
20712;DHT22;10517;50.742;4.224;2023-07-16T05:59:26;16.80;99.90
20712;DHT22;10517;50.742;4.224;2023-07-16T06:01:51;17.00;99.90
20712;DHT22;10517;50.742;4.224;2023-07-16T06:04:17;17.10;99.90
20712;DHT22;10517;50.742;4.224;2023-07-16T06:06:43;17.20;99.90
20712;DHT22;10517;50.742;4.224;2023-07-16T06:09:08;17.20;99.90
20712;DHT22;10517;50.742;4.224;2023-07-16T06:11:34;17.10;99.90
20712;DHT22;10517;50.742;4.224;2023-07-16T06:14:00;17.20;99.90
20712;DHT22;10517;50.742;4.224;2023-07-16T06:16:25;17.20;99.90
20712;DHT22;10517;50.742;4.224;2023-07-16T06:18:51;17.20;99.90
20712;DHT22;10517;50.742;4.224;2023-07-16T06:21:17;17.20;99.90
20712;DHT22;10517;50.742;4.224;2023-07-16T06:23:43;17.30;99.90
20712;DHT22;10517;50.742;4.224;2023-07-16T06:26:08;17.30;99.90
20712;DHT22;10517;50.742;4.224;2023-07-16T06:28:34;17.50;99.90
20712;DHT22;10517;50.742;4.224;2023-07-16T06:30:59;17.40;99.90
20712;DHT22;10517;50.742;4.224;2023-07-16T06:33:25;17.50;99.90
20712;DHT22;10517;50.742;4.224;2023-07-16T06:35:52;17.50;99.90
20712;DHT22;10517;50.742;4.224;2023-07-16T06:38:18;17.70;99.90
20712;DHT22;10517;50.742;4.224;2023-07-16T06:40:47;17.80;99.90
20712;DHT22;10517;50.742;4.224;2023-07-16T06:43:14;17.80;99.90
20712;DHT22;10517;50.742;4.224;2023-07-16T06:45:39;17.80;99.90
20712;DHT22;10517;50.742;4.224;2023-07-16T06:48:05;17.90;99.90
20712;DHT22;10517;50.742;4.224;2023-07-16T06:50:30;18.00;99.90
20712;DHT22;10517;50.742;4.224;2023-07-16T06:52:56;18.00;99.90
20712;DHT22;10517;50.742;4.224;2023-07-16T06:55:22;18.10;99.90
20712;DHT22;10517;50.742;4.224;2023-07-16T06:57:47;18.10;99.90
20712;DHT22;10517;50.742;4.224;2023-07-16T07:00:13;18.20;99.90
20712;DHT22;10517;50.742;4.224;2023-07-16T07:02:38;18.30;99.90
20712;DHT22;10517;50.742;4.224;2023-07-16T07:05:04;18.40;99.90
20712;DHT22;10517;50.742;4.224;2023-07-16T07:07:30;18.50;99.90
20712;DHT22;10517;50.742;4.224;2023-07-16T07:09:56;18.60;99.90
20712;DHT22;10517;50.742;4.224;2023-07-16T07:12:21;18.70;99.90
20712;DHT22;10517;50.742;4.224;2023-07-16T07:14:47;18.80;99.90
20712;DHT22;10517;50.742;4.224;2023-07-16T07:17:13;18.90;99.90
20712;DHT22;10517;50.742;4.224;2023-07-16T07:19:39;18.90;99.90
20712;DHT22;10517;50.742;4.224;2023-07-16T07:22:05;19.00;99.90
20712;DHT22;10517;50.742;4.224;2023-07-16T07:24:30;19.00;99.90
20712;DHT22;10517;50.742;4.224;2023-07-16T07:26:56;19.10;99.90
20712;DHT22;10517;50.742;4.224;2023-07-16T07:29:21;19.40;99.90
20712;DHT22;10517;50.742;4.224;2023-07-16T07:31:47;19.50;99.90
20712;DHT22;10517;50.742;4.224;2023-07-16T07:34:12;19.70;99.90
20712;DHT22;10517;50.742;4.224;2023-07-16T07:36:38;19.80;99.90
20712;DHT22;10517;50.742;4.224;2023-07-16T07:39:04;19.70;99.90
20712;DHT22;10517;50.742;4.224;2023-07-16T07:41:29;19.70;99.90
20712;DHT22;10517;50.742;4.224;2023-07-16T07:43:55;19.70;99.90
20712;DHT22;10517;50.742;4.224;2023-07-16T07:46:20;19.70;99.90
20712;DHT22;10517;50.742;4.224;2023-07-16T07:48:46;19.70;99.90
20712;DHT22;10517;50.742;4.224;2023-07-16T07:51:11;19.80;99.90
20712;DHT22;10517;50.742;4.224;2023-07-16T07:53:37;19.90;99.90
20712;DHT22;10517;50.742;4.224;2023-07-16T07:56:03;20.10;99.90
20712;DHT22;10517;50.742;4.224;2023-07-16T07:58:28;20.10;99.90
20712;DHT22;10517;50.742;4.224;2023-07-16T08:00:54;20.30;99.90
20712;DHT22;10517;50.742;4.224;2023-07-16T08:03:19;20.20;99.90
20712;DHT22;10517;50.742;4.224;2023-07-16T08:05:48;20.30;99.90
20712;DHT22;10517;50.742;4.224;2023-07-16T08:08:14;20.40;99.90
20712;DHT22;10517;50.742;4.224;2023-07-16T08:10:40;20.40;99.90
20712;DHT22;10517;50.742;4.224;2023-07-16T08:13:06;20.50;99.90
20712;DHT22;10517;50.742;4.224;2023-07-16T08:15:31;20.50;99.90
20712;DHT22;10517;50.742;4.224;2023-07-16T08:17:57;20.50;99.90
20712;DHT22;10517;50.742;4.224;2023-07-16T08:20:25;20.60;99.90
20712;DHT22;10517;50.742;4.224;2023-07-16T08:22:51;20.60;99.90
20712;DHT22;10517;50.742;4.224;2023-07-16T08:25:16;20.60;99.90
20712;DHT22;10517;50.742;4.224;2023-07-16T08:27:42;20.70;99.90
20712;DHT22;10517;50.742;4.224;2023-07-16T08:30:08;20.60;99.90
20712;DHT22;10517;50.742;4.224;2023-07-16T08:32:33;20.70;99.90
20712;DHT22;10517;50.742;4.224;2023-07-16T08:34:59;20.90;99.90
20712;DHT22;10517;50.742;4.224;2023-07-16T08:37:24;21.20;99.90
20712;DHT22;10517;50.742;4.224;2023-07-16T08:39:52;21.50;99.90
20712;DHT22;10517;50.742;4.224;2023-07-16T08:42:19;21.80;99.90
20712;DHT22;10517;50.742;4.224;2023-07-16T08:44:45;22.10;99.90
20712;DHT22;10517;50.742;4.224;2023-07-16T08:47:10;22.20;99.90
20712;DHT22;10517;50.742;4.224;2023-07-16T08:49:36;22.60;99.90
20712;DHT22;10517;50.742;4.224;2023-07-16T08:52:04;22.80;99.90
20712;DHT22;10517;50.742;4.224;2023-07-16T08:54:30;22.70;99.90
20712;DHT22;10517;50.742;4.224;2023-07-16T08:56:56;22.90;99.90
20712;DHT22;10517;50.742;4.224;2023-07-16T08:59:22;23.20;99.90
20712;DHT22;10517;50.742;4.224;2023-07-16T09:01:48;23.40;99.90
20712;DHT22;10517;50.742;4.224;2023-07-16T09:04:15;23.50;99.90
20712;DHT22;10517;50.742;4.224;2023-07-16T09:06:41;23.50;99.90
20712;DHT22;10517;50.742;4.224;2023-07-16T09:09:06;23.50;99.90
20712;DHT22;10517;50.742;4.224;2023-07-16T09:11:33;23.70;99.90
20712;DHT22;10517;50.742;4.224;2023-07-16T09:14:01;23.60;99.90
20712;DHT22;10517;50.742;4.224;2023-07-16T09:16:27;23.50;99.90
20712;DHT22;10517;50.742;4.224;2023-07-16T09:19:05;23.40;99.90
20712;DHT22;10517;50.742;4.224;2023-07-16T09:21:31;23.30;99.90
20712;DHT22;10517;50.742;4.224;2023-07-16T09:24:00;23.20;99.90
20712;DHT22;10517;50.742;4.224;2023-07-16T09:26:25;23.20;99.90
20712;DHT22;10517;50.742;4.224;2023-07-16T09:28:51;23.20;99.90
20712;DHT22;10517;50.742;4.224;2023-07-16T09:31:16;23.20;99.90
20712;DHT22;10517;50.742;4.224;2023-07-16T09:33:46;23.40;99.90
20712;DHT22;10517;50.742;4.224;2023-07-16T09:36:12;23.60;99.90
20712;DHT22;10517;50.742;4.224;2023-07-16T09:38:38;23.80;99.90
20712;DHT22;10517;50.742;4.224;2023-07-16T09:41:04;24.10;99.90
20712;DHT22;10517;50.742;4.224;2023-07-16T09:43:33;24.20;99.90
20712;DHT22;10517;50.742;4.224;2023-07-16T09:45:58;24.30;99.90
20712;DHT22;10517;50.742;4.224;2023-07-16T09:48:24;24.40;99.90
20712;DHT22;10517;50.742;4.224;2023-07-16T09:50:51;24.40;99.90
20712;DHT22;10517;50.742;4.224;2023-07-16T09:53:19;24.50;99.90
20712;DHT22;10517;50.742;4.224;2023-07-16T09:55:46;24.70;99.90
20712;DHT22;10517;50.742;4.224;2023-07-16T09:58:13;24.80;99.90
20712;DHT22;10517;50.742;4.224;2023-07-16T10:00:40;24.80;99.90
20712;DHT22;10517;50.742;4.224;2023-07-16T10:03:07;24.50;99.90
20712;DHT22;10517;50.742;4.224;2023-07-16T10:05:36;24.40;99.90
20712;DHT22;10517;50.742;4.224;2023-07-16T10:08:02;24.20;99.90
20712;DHT22;10517;50.742;4.224;2023-07-16T10:10:46;24.00;99.90
20712;DHT22;10517;50.742;4.224;2023-07-16T10:13:15;23.70;99.90
20712;DHT22;10517;50.742;4.224;2023-07-16T10:15:55;23.60;99.90
20712;DHT22;10517;50.742;4.224;2023-07-16T10:20:51;23.30;99.90
20712;DHT22;10517;50.742;4.224;2023-07-16T10:23:18;23.60;99.90
20712;DHT22;10517;50.742;4.224;2023-07-16T10:26:04;23.70;99.90
20712;DHT22;10517;50.742;4.224;2023-07-16T10:28:33;23.50;99.90
20712;DHT22;10517;50.742;4.224;2023-07-16T10:30:59;23.30;99.90
20712;DHT22;10517;50.742;4.224;2023-07-16T10:33:25;23.30;99.90
20712;DHT22;10517;50.742;4.224;2023-07-16T10:35:51;23.60;99.90
20712;DHT22;10517;50.742;4.224;2023-07-16T10:38:16;23.90;99.90
20712;DHT22;10517;50.742;4.224;2023-07-16T10:40:45;24.50;99.90
20712;DHT22;10517;50.742;4.224;2023-07-16T10:43:14;24.80;99.90
20712;DHT22;10517;50.742;4.224;2023-07-16T10:45:40;24.70;99.90
20712;DHT22;10517;50.742;4.224;2023-07-16T10:48:06;24.70;99.90
20712;DHT22;10517;50.742;4.224;2023-07-16T10:50:34;24.90;99.90
20712;DHT22;10517;50.742;4.224;2023-07-16T10:53:01;25.00;99.90
20712;DHT22;10517;50.742;4.224;2023-07-16T10:55:28;24.90;99.90
20712;DHT22;10517;50.742;4.224;2023-07-16T10:57:54;24.70;99.90
20712;DHT22;10517;50.742;4.224;2023-07-16T11:00:21;24.50;99.90
20712;DHT22;10517;50.742;4.224;2023-07-16T11:02:49;24.50;99.90
20712;DHT22;10517;50.742;4.224;2023-07-16T11:05:16;24.20;99.90
20712;DHT22;10517;50.742;4.224;2023-07-16T11:07:49;24.00;99.90
20712;DHT22;10517;50.742;4.224;2023-07-16T11:10:16;23.20;99.90
20712;DHT22;10517;50.742;4.224;2023-07-16T11:12:42;22.60;99.90
20712;DHT22;10517;50.742;4.224;2023-07-16T11:15:08;22.10;99.90
20712;DHT22;10517;50.742;4.224;2023-07-16T11:17:36;22.10;99.90
20712;DHT22;10517;50.742;4.224;2023-07-16T11:20:02;22.20;99.90
20712;DHT22;10517;50.742;4.224;2023-07-16T11:22:29;22.10;99.90
20712;DHT22;10517;50.742;4.224;2023-07-16T11:24:55;22.10;99.90
20712;DHT22;10517;50.742;4.224;2023-07-16T11:27:26;21.90;99.90
20712;DHT22;10517;50.742;4.224;2023-07-16T11:29:53;22.20;99.90
20712;DHT22;10517;50.742;4.224;2023-07-16T11:32:34;22.60;99.90
20712;DHT22;10517;50.742;4.224;2023-07-16T11:35:05;23.20;99.90
20712;DHT22;10517;50.742;4.224;2023-07-16T11:37:32;23.60;99.90
20712;DHT22;10517;50.742;4.224;2023-07-16T11:40:09;24.00;99.90
20712;DHT22;10517;50.742;4.224;2023-07-16T11:42:39;24.40;99.90
20712;DHT22;10517;50.742;4.224;2023-07-16T11:45:14;24.70;99.90
20712;DHT22;10517;50.742;4.224;2023-07-16T11:47:40;25.00;99.90
20712;DHT22;10517;50.742;4.224;2023-07-16T11:50:06;25.20;99.90
20712;DHT22;10517;50.742;4.224;2023-07-16T11:52:32;25.60;99.90
20712;DHT22;10517;50.742;4.224;2023-07-16T11:54:58;26.00;99.90
20712;DHT22;10517;50.742;4.224;2023-07-16T11:57:29;26.50;99.90
20712;DHT22;10517;50.742;4.224;2023-07-16T11:59:55;26.80;99.90
20712;DHT22;10517;50.742;4.224;2023-07-16T12:02:21;27.30;99.90
20712;DHT22;10517;50.742;4.224;2023-07-16T12:04:47;27.30;99.90
20712;DHT22;10517;50.742;4.224;2023-07-16T12:07:13;27.50;99.90
20712;DHT22;10517;50.742;4.224;2023-07-16T12:09:38;27.60;99.90
20712;DHT22;10517;50.742;4.224;2023-07-16T12:12:04;27.60;99.90
20712;DHT22;10517;50.742;4.224;2023-07-16T12:14:30;27.70;99.90
20712;DHT22;10517;50.742;4.224;2023-07-16T12:16:56;27.60;99.90
20712;DHT22;10517;50.742;4.224;2023-07-16T12:19:22;27.70;99.90
20712;DHT22;10517;50.742;4.224;2023-07-16T12:21:47;27.60;99.90
20712;DHT22;10517;50.742;4.224;2023-07-16T12:24:13;27.40;99.90
20712;DHT22;10517;50.742;4.224;2023-07-16T12:26:39;27.40;99.90
20712;DHT22;10517;50.742;4.224;2023-07-16T12:29:04;27.10;99.90
20712;DHT22;10517;50.742;4.224;2023-07-16T12:31:33;26.90;99.90
20712;DHT22;10517;50.742;4.224;2023-07-16T12:34:00;27.20;99.90
20712;DHT22;10517;50.742;4.224;2023-07-16T12:36:27;27.50;99.90
20712;DHT22;10517;50.742;4.224;2023-07-16T12:38:53;27.80;99.90
20712;DHT22;10517;50.742;4.224;2023-07-16T12:41:18;27.90;99.90
20712;DHT22;10517;50.742;4.224;2023-07-16T12:43:44;28.30;99.90
20712;DHT22;10517;50.742;4.224;2023-07-16T12:46:10;28.80;99.90
20712;DHT22;10517;50.742;4.224;2023-07-16T12:48:36;29.40;99.90
20712;DHT22;10517;50.742;4.224;2023-07-16T12:51:01;29.70;99.90
20712;DHT22;10517;50.742;4.224;2023-07-16T12:53:28;29.90;99.90
20712;DHT22;10517;50.742;4.224;2023-07-16T12:55:53;30.10;99.90
20712;DHT22;10517;50.742;4.224;2023-07-16T12:58:19;30.40;99.90
20712;DHT22;10517;50.742;4.224;2023-07-16T13:00:44;30.10;99.90
20712;DHT22;10517;50.742;4.224;2023-07-16T13:03:10;30.20;99.90
20712;DHT22;10517;50.742;4.224;2023-07-16T13:05:37;30.00;99.90
20712;DHT22;10517;50.742;4.224;2023-07-16T13:08:04;29.40;99.90
20712;DHT22;10517;50.742;4.224;2023-07-16T13:10:29;29.00;99.90
20712;DHT22;10517;50.742;4.224;2023-07-16T13:12:55;28.00;99.90
20712;DHT22;10517;50.742;4.224;2023-07-16T13:15:20;27.60;99.90
20712;DHT22;10517;50.742;4.224;2023-07-16T13:17:46;27.30;99.90
20712;DHT22;10517;50.742;4.224;2023-07-16T13:20:13;26.90;99.90
20712;DHT22;10517;50.742;4.224;2023-07-16T13:22:39;25.30;99.90
20712;DHT22;10517;50.742;4.224;2023-07-16T13:25:04;23.50;99.90
20712;DHT22;10517;50.742;4.224;2023-07-16T13:27:30;22.50;99.90
20712;DHT22;10517;50.742;4.224;2023-07-16T13:29:56;22.00;99.90
20712;DHT22;10517;50.742;4.224;2023-07-16T13:32:21;21.50;99.90
20712;DHT22;10517;50.742;4.224;2023-07-16T13:34:47;21.50;99.90
20712;DHT22;10517;50.742;4.224;2023-07-16T13:37:12;21.20;99.90
20712;DHT22;10517;50.742;4.224;2023-07-16T13:39:39;21.20;99.90
20712;DHT22;10517;50.742;4.224;2023-07-16T13:42:05;21.70;99.90
20712;DHT22;10517;50.742;4.224;2023-07-16T13:44:34;22.40;99.90
20712;DHT22;10517;50.742;4.224;2023-07-16T13:47:00;23.50;99.90
20712;DHT22;10517;50.742;4.224;2023-07-16T13:49:25;25.10;99.90
20712;DHT22;10517;50.742;4.224;2023-07-16T13:51:51;26.50;99.90
20712;DHT22;10517;50.742;4.224;2023-07-16T13:54:16;27.20;99.90
20712;DHT22;10517;50.742;4.224;2023-07-16T13:56:42;27.80;99.90
20712;DHT22;10517;50.742;4.224;2023-07-16T13:59:08;29.30;99.90
20712;DHT22;10517;50.742;4.224;2023-07-16T14:01:38;29.60;99.90
20712;DHT22;10517;50.742;4.224;2023-07-16T14:04:04;29.90;99.90
20712;DHT22;10517;50.742;4.224;2023-07-16T14:06:30;30.70;99.90
20712;DHT22;10517;50.742;4.224;2023-07-16T14:08:55;31.80;99.90
20712;DHT22;10517;50.742;4.224;2023-07-16T14:11:22;32.90;99.90
20712;DHT22;10517;50.742;4.224;2023-07-16T14:13:48;34.10;99.90
20712;DHT22;10517;50.742;4.224;2023-07-16T14:16:17;34.70;99.90
20712;DHT22;10517;50.742;4.224;2023-07-16T14:18:42;34.60;99.90
20712;DHT22;10517;50.742;4.224;2023-07-16T14:21:08;33.90;99.60
20712;DHT22;10517;50.742;4.224;2023-07-16T14:23:33;32.70;98.70
20712;DHT22;10517;50.742;4.224;2023-07-16T14:25:59;30.70;98.50
20712;DHT22;10517;50.742;4.224;2023-07-16T14:28:25;30.30;98.10
20712;DHT22;10517;50.742;4.224;2023-07-16T14:30:50;28.60;99.30
20712;DHT22;10517;50.742;4.224;2023-07-16T14:33:16;29.90;99.90
20712;DHT22;10517;50.742;4.224;2023-07-16T14:35:42;29.70;99.70
20712;DHT22;10517;50.742;4.224;2023-07-16T14:38:07;29.90;98.00
20712;DHT22;10517;50.742;4.224;2023-07-16T14:40:33;30.70;99.30
20712;DHT22;10517;50.742;4.224;2023-07-16T14:42:59;31.20;97.90
20712;DHT22;10517;50.742;4.224;2023-07-16T14:45:24;30.40;97.40
20712;DHT22;10517;50.742;4.224;2023-07-16T14:47:50;30.50;96.90
20712;DHT22;10517;50.742;4.224;2023-07-16T14:50:15;29.50;97.20
20712;DHT22;10517;50.742;4.224;2023-07-16T14:52:41;29.30;97.50
20712;DHT22;10517;50.742;4.224;2023-07-16T14:55:07;29.10;97.60
20712;DHT22;10517;50.742;4.224;2023-07-16T14:57:33;28.80;97.20
20712;DHT22;10517;50.742;4.224;2023-07-16T14:59:59;29.50;99.90
20712;DHT22;10517;50.742;4.224;2023-07-16T15:02:25;30.20;96.60
20712;DHT22;10517;50.742;4.224;2023-07-16T15:04:51;30.10;96.90
20712;DHT22;10517;50.742;4.224;2023-07-16T15:07:16;29.40;97.00
20712;DHT22;10517;50.742;4.224;2023-07-16T15:09:42;28.70;97.30
20712;DHT22;10517;50.742;4.224;2023-07-16T15:12:08;28.60;98.20
20712;DHT22;10517;50.742;4.224;2023-07-16T15:14:34;28.80;99.10
20712;DHT22;10517;50.742;4.224;2023-07-16T15:17:00;29.10;99.60
20712;DHT22;10517;50.742;4.224;2023-07-16T15:19:25;30.20;99.40
20712;DHT22;10517;50.742;4.224;2023-07-16T15:21:51;31.60;99.00
20712;DHT22;10517;50.742;4.224;2023-07-16T15:24:16;32.20;99.10
20712;DHT22;10517;50.742;4.224;2023-07-16T15:26:42;32.50;98.00
20712;DHT22;10517;50.742;4.224;2023-07-16T15:29:08;31.80;99.80
20712;DHT22;10517;50.742;4.224;2023-07-16T15:31:33;31.00;96.90
20712;DHT22;10517;50.742;4.224;2023-07-16T15:33:59;30.30;97.50
20712;DHT22;10517;50.742;4.224;2023-07-16T15:36:25;29.50;99.00